Impacts METAR Board
IDs:

KMDW - Chicago/Midway Intl, IL, US

Updated at: 1000 UTC 09 Jul 2020
Potential Impact None Slight Moderate High
Time 08/22Z 08/23Z 09/00Z 09/01Z 09/02Z 09/03Z 09/04Z 09/05Z 09/06Z 09/07Z 09/08Z 09/09Z 09/10Z
Temp89 86 85 84 83 83 82 81 80 79 78 77 76
Dewpt66 67 67 64 64 64 66 64 66 66 67 68 68
Altim29.89 29.89 29.88 29.88 29.91 29.91 29.90 29.89 29.88 29.88 29.89 29.88 29.90
VIS10 10 10 10 10 10 10 10 10 10 10 10 10
CIG-- 140 150 150 150 200 220 220 250 250 -- -- --
CoverSCTBKNBKNBKNOVCBKNBKNBKNBKNBKNFEWFEWFEW
FltCatVFRVFRVFRVFRVFRVFRVFRVFRVFRVFRVFRVFRVFR
WX--------------------------
WDir901201402002100210180200200210210240
WSpd10 9 7 4 4 0 5 4 5 3 6 5 5
WGst18 -- -- -- -- -- -- -- -- -- -- -- --
Raw hourly METARs
KMDW 082153Z 09010G18KT 10SM FEW060 FEW150 SCT250 32/19 A2989 RMK AO2 SLP108 CB DSNT S-W T03170189
KMDW 082253Z 12009KT 10SM FEW060 SCT100 BKN140 BKN250 30/19 A2989 RMK AO2 LTG DSNT S-W SLP108 CB DSNT S-W T03000194
KMDW 082353Z 14007KT 10SM FEW060 SCT100 BKN150 BKN220 29/19 A2988 RMK AO2 LTG DSNT SE AND S SLP106 CB DSNT S-W 60000 T02940194 10322 20294 58003
KMDW 090053Z 20004KT 10SM FEW060 SCT100 BKN150 BKN200 29/18 A2988 RMK AO2 SLP108 T02890178
KMDW 090153Z 21004KT 10SM FEW060 BKN150 OVC200 28/18 A2991 RMK AO2 SLP114 T02830178
KMDW 090253Z 00000KT 10SM FEW150 BKN200 28/18 A2991 RMK AO2 SLP115 T02830178 51010
KMDW 090353Z 21005KT 10SM BKN220 28/19 A2990 RMK AO2 SLP111 T02780189
KMDW 090453Z 18004KT 10SM BKN220 27/18 A2989 RMK AO2 SLP109 T02720178
KMDW 090553Z 20005KT 10SM BKN250 27/19 A2988 RMK AO2 SLP106 T02670189 10300 20261 403330239 58008
KMDW 090653Z 20003KT 10SM BKN250 26/19 A2988 RMK AO2 SLP104 T02610189
KMDW 090753Z 21006KT 10SM FEW250 26/19 A2989 RMK AO2 SLP108 T02560194
KMDW 090853Z 21005KT 10SM FEW250 25/20 A2988 RMK AO2 SLP106 T02500200 55000
KMDW 090953Z 24005KT 10SM FEW200 FEW250 24/20 A2990 RMK AO2 SLP113 T02440200



Page loaded:  10:33 UTC  |   03:33 AM Pacific  |   04:33 AM Mountain  |   05:33 AM Central  |   06:33 AM Eastern

 

ADVISORIES

FORECASTS

FORECASTS

OBSERVATIONS

USER TOOLS

ABOUT US